sensor_id;sensor_type;location;lat;lon;timestamp;temperature;humidity
19031;DHT22;9648;51.130;13.978;2023-07-13T00:01:30;18.80;99.90
19031;DHT22;9648;51.130;13.978;2023-07-13T00:03:58;18.80;99.90
19031;DHT22;9648;51.130;13.978;2023-07-13T00:06:26;18.90;99.90
19031;DHT22;9648;51.130;13.978;2023-07-13T00:08:56;18.90;99.90
19031;DHT22;9648;51.130;13.978;2023-07-13T00:11:22;18.90;99.90
19031;DHT22;9648;51.130;13.978;2023-07-13T00:13:49;18.90;99.90
19031;DHT22;9648;51.130;13.978;2023-07-13T00:16:16;18.90;99.90
19031;DHT22;9648;51.130;13.978;2023-07-13T00:18:44;18.90;99.90
19031;DHT22;9648;51.130;13.978;2023-07-13T00:21:13;18.90;99.90
19031;DHT22;9648;51.130;13.978;2023-07-13T00:23:41;19.00;99.90
19031;DHT22;9648;51.130;13.978;2023-07-13T00:26:10;19.00;99.90
19031;DHT22;9648;51.130;13.978;2023-07-13T00:28:38;19.00;99.90
19031;DHT22;9648;51.130;13.978;2023-07-13T00:31:08;19.00;99.90
19031;DHT22;9648;51.130;13.978;2023-07-13T00:33:35;19.00;99.90
19031;DHT22;9648;51.130;13.978;2023-07-13T00:36:02;19.00;99.90
19031;DHT22;9648;51.130;13.978;2023-07-13T00:38:31;18.90;99.90
19031;DHT22;9648;51.130;13.978;2023-07-13T00:40:58;18.90;99.90
19031;DHT22;9648;51.130;13.978;2023-07-13T00:43:27;18.80;99.90
19031;DHT22;9648;51.130;13.978;2023-07-13T00:46:15;18.80;99.90
19031;DHT22;9648;51.130;13.978;2023-07-13T00:48:43;18.80;99.90
19031;DHT22;9648;51.130;13.978;2023-07-13T00:51:10;18.80;99.90
19031;DHT22;9648;51.130;13.978;2023-07-13T00:53:39;18.80;99.90
19031;DHT22;9648;51.130;13.978;2023-07-13T00:56:06;18.80;99.90
19031;DHT22;9648;51.130;13.978;2023-07-13T00:58:35;18.70;99.90
19031;DHT22;9648;51.130;13.978;2023-07-13T01:01:02;18.80;99.90
19031;DHT22;9648;51.130;13.978;2023-07-13T01:03:29;18.70;99.90
19031;DHT22;9648;51.130;13.978;2023-07-13T01:05:56;18.60;99.90
19031;DHT22;9648;51.130;13.978;2023-07-13T01:08:23;18.50;99.90
19031;DHT22;9648;51.130;13.978;2023-07-13T01:10:56;18.30;99.90
19031;DHT22;9648;51.130;13.978;2023-07-13T01:13:23;18.20;99.90
19031;DHT22;9648;51.130;13.978;2023-07-13T01:15:51;18.10;99.90
19031;DHT22;9648;51.130;13.978;2023-07-13T01:18:21;18.00;99.90
19031;DHT22;9648;51.130;13.978;2023-07-13T01:20:55;17.80;99.90
19031;DHT22;9648;51.130;13.978;2023-07-13T01:23:23;17.70;99.90
19031;DHT22;9648;51.130;13.978;2023-07-13T01:25:52;17.70;99.90
19031;DHT22;9648;51.130;13.978;2023-07-13T01:28:20;17.60;99.90
19031;DHT22;9648;51.130;13.978;2023-07-13T01:30:48;17.50;99.90
19031;DHT22;9648;51.130;13.978;2023-07-13T01:33:16;17.50;99.90
19031;DHT22;9648;51.130;13.978;2023-07-13T01:35:43;17.50;99.90
19031;DHT22;9648;51.130;13.978;2023-07-13T01:38:14;17.40;99.90
19031;DHT22;9648;51.130;13.978;2023-07-13T01:40:41;17.40;99.90
19031;DHT22;9648;51.130;13.978;2023-07-13T01:43:09;17.30;99.90
19031;DHT22;9648;51.130;13.978;2023-07-13T01:45:36;17.30;99.90
19031;DHT22;9648;51.130;13.978;2023-07-13T01:48:03;17.30;99.90
19031;DHT22;9648;51.130;13.978;2023-07-13T01:50:32;17.20;99.90
19031;DHT22;9648;51.130;13.978;2023-07-13T01:52:58;17.20;99.90
19031;DHT22;9648;51.130;13.978;2023-07-13T01:55:28;17.00;99.90
19031;DHT22;9648;51.130;13.978;2023-07-13T01:57:55;17.00;99.90
19031;DHT22;9648;51.130;13.978;2023-07-13T02:00:21;17.00;99.90
19031;DHT22;9648;51.130;13.978;2023-07-13T02:02:48;16.90;99.90
19031;DHT22;9648;51.130;13.978;2023-07-13T02:05:15;16.90;99.90
19031;DHT22;9648;51.130;13.978;2023-07-13T02:07:42;16.90;99.90
19031;DHT22;9648;51.130;13.978;2023-07-13T02:10:10;16.90;99.90
19031;DHT22;9648;51.130;13.978;2023-07-13T02:12:38;16.90;99.90
19031;DHT22;9648;51.130;13.978;2023-07-13T02:15:06;16.90;99.90
19031;DHT22;9648;51.130;13.978;2023-07-13T02:17:33;16.80;99.90
19031;DHT22;9648;51.130;13.978;2023-07-13T02:20:00;16.80;99.90
19031;DHT22;9648;51.130;13.978;2023-07-13T02:22:28;16.80;99.90
19031;DHT22;9648;51.130;13.978;2023-07-13T02:24:54;16.80;99.90
19031;DHT22;9648;51.130;13.978;2023-07-13T02:27:21;16.80;99.90
19031;DHT22;9648;51.130;13.978;2023-07-13T02:29:49;16.70;99.90
19031;DHT22;9648;51.130;13.978;2023-07-13T02:32:17;16.60;99.90
19031;DHT22;9648;51.130;13.978;2023-07-13T02:34:45;16.60;99.90
19031;DHT22;9648;51.130;13.978;2023-07-13T02:37:12;16.60;99.90
19031;DHT22;9648;51.130;13.978;2023-07-13T02:39:38;16.50;99.90
19031;DHT22;9648;51.130;13.978;2023-07-13T02:42:06;16.50;99.90
19031;DHT22;9648;51.130;13.978;2023-07-13T02:44:33;16.50;99.90
19031;DHT22;9648;51.130;13.978;2023-07-13T02:47:01;16.50;99.90
19031;DHT22;9648;51.130;13.978;2023-07-13T02:49:27;16.50;99.90
19031;DHT22;9648;51.130;13.978;2023-07-13T02:51:54;16.50;99.90
19031;DHT22;9648;51.130;13.978;2023-07-13T02:54:21;16.60;99.90
19031;DHT22;9648;51.130;13.978;2023-07-13T02:56:48;16.60;99.90
19031;DHT22;9648;51.130;13.978;2023-07-13T02:59:14;16.60;99.90
19031;DHT22;9648;51.130;13.978;2023-07-13T03:01:41;16.60;99.90
19031;DHT22;9648;51.130;13.978;2023-07-13T03:04:09;16.60;99.90
19031;DHT22;9648;51.130;13.978;2023-07-13T03:06:36;16.60;99.90
19031;DHT22;9648;51.130;13.978;2023-07-13T03:09:03;16.60;99.90
19031;DHT22;9648;51.130;13.978;2023-07-13T03:11:30;16.60;99.90
19031;DHT22;9648;51.130;13.978;2023-07-13T03:13:57;16.60;99.90
19031;DHT22;9648;51.130;13.978;2023-07-13T03:16:24;16.60;99.90
19031;DHT22;9648;51.130;13.978;2023-07-13T03:18:51;16.60;99.90
19031;DHT22;9648;51.130;13.978;2023-07-13T03:21:19;16.60;99.90
19031;DHT22;9648;51.130;13.978;2023-07-13T03:23:47;16.50;99.90
19031;DHT22;9648;51.130;13.978;2023-07-13T03:26:15;16.50;99.90
19031;DHT22;9648;51.130;13.978;2023-07-13T03:28:43;16.50;99.90
19031;DHT22;9648;51.130;13.978;2023-07-13T03:31:12;16.50;99.90
19031;DHT22;9648;51.130;13.978;2023-07-13T03:33:40;16.40;99.90
19031;DHT22;9648;51.130;13.978;2023-07-13T03:36:12;16.40;99.90
19031;DHT22;9648;51.130;13.978;2023-07-13T03:38:41;16.40;99.90
19031;DHT22;9648;51.130;13.978;2023-07-13T03:41:08;16.40;99.90
19031;DHT22;9648;51.130;13.978;2023-07-13T03:43:34;16.40;99.90
19031;DHT22;9648;51.130;13.978;2023-07-13T03:46:01;16.40;99.90
19031;DHT22;9648;51.130;13.978;2023-07-13T03:48:28;16.40;99.90
19031;DHT22;9648;51.130;13.978;2023-07-13T03:50:55;16.40;99.90
19031;DHT22;9648;51.130;13.978;2023-07-13T03:53:21;16.40;99.90
19031;DHT22;9648;51.130;13.978;2023-07-13T03:55:49;16.40;99.90
19031;DHT22;9648;51.130;13.978;2023-07-13T03:58:31;16.50;99.90
19031;DHT22;9648;51.130;13.978;2023-07-13T04:00:59;16.50;99.90
19031;DHT22;9648;51.130;13.978;2023-07-13T04:03:27;16.50;99.90
19031;DHT22;9648;51.130;13.978;2023-07-13T04:05:54;16.50;99.90
19031;DHT22;9648;51.130;13.978;2023-07-13T04:08:26;16.50;99.90
19031;DHT22;9648;51.130;13.978;2023-07-13T04:10:54;16.50;99.90
19031;DHT22;9648;51.130;13.978;2023-07-13T04:13:21;16.50;99.90
19031;DHT22;9648;51.130;13.978;2023-07-13T04:15:48;16.60;99.90
19031;DHT22;9648;51.130;13.978;2023-07-13T04:18:14;16.60;99.90
19031;DHT22;9648;51.130;13.978;2023-07-13T04:20:42;16.60;99.90
19031;DHT22;9648;51.130;13.978;2023-07-13T04:23:08;16.70;99.90
19031;DHT22;9648;51.130;13.978;2023-07-13T04:25:35;16.80;99.90
19031;DHT22;9648;51.130;13.978;2023-07-13T04:28:04;16.80;99.90
19031;DHT22;9648;51.130;13.978;2023-07-13T04:30:31;16.90;99.90
19031;DHT22;9648;51.130;13.978;2023-07-13T04:32:58;16.90;99.90
19031;DHT22;9648;51.130;13.978;2023-07-13T04:35:25;17.00;99.90
19031;DHT22;9648;51.130;13.978;2023-07-13T04:37:52;17.10;99.90
19031;DHT22;9648;51.130;13.978;2023-07-13T04:40:20;17.10;99.90
19031;DHT22;9648;51.130;13.978;2023-07-13T04:42:47;17.10;99.90
19031;DHT22;9648;51.130;13.978;2023-07-13T04:45:15;17.20;99.90
19031;DHT22;9648;51.130;13.978;2023-07-13T04:47:42;17.20;99.90
19031;DHT22;9648;51.130;13.978;2023-07-13T04:50:10;17.20;99.90
19031;DHT22;9648;51.130;13.978;2023-07-13T04:52:37;17.30;99.90
19031;DHT22;9648;51.130;13.978;2023-07-13T04:55:05;17.30;99.90
19031;DHT22;9648;51.130;13.978;2023-07-13T04:57:31;17.30;99.90
19031;DHT22;9648;51.130;13.978;2023-07-13T04:59:59;17.40;99.90
19031;DHT22;9648;51.130;13.978;2023-07-13T05:02:28;17.40;99.90
19031;DHT22;9648;51.130;13.978;2023-07-13T05:04:56;17.50;99.90
19031;DHT22;9648;51.130;13.978;2023-07-13T05:07:23;17.50;99.90
19031;DHT22;9648;51.130;13.978;2023-07-13T05:09:50;17.50;99.90
19031;DHT22;9648;51.130;13.978;2023-07-13T05:12:17;17.50;99.90
19031;DHT22;9648;51.130;13.978;2023-07-13T05:14:44;17.50;99.90
19031;DHT22;9648;51.130;13.978;2023-07-13T05:17:11;17.40;99.90
19031;DHT22;9648;51.130;13.978;2023-07-13T05:19:39;17.40;99.90
19031;DHT22;9648;51.130;13.978;2023-07-13T05:22:06;17.40;99.90
19031;DHT22;9648;51.130;13.978;2023-07-13T05:24:32;17.40;99.90
19031;DHT22;9648;51.130;13.978;2023-07-13T05:26:59;17.50;99.90
19031;DHT22;9648;51.130;13.978;2023-07-13T05:29:26;17.60;99.90
19031;DHT22;9648;51.130;13.978;2023-07-13T05:31:53;17.70;99.90
19031;DHT22;9648;51.130;13.978;2023-07-13T05:34:19;17.90;99.90
19031;DHT22;9648;51.130;13.978;2023-07-13T05:36:48;18.00;99.90
19031;DHT22;9648;51.130;13.978;2023-07-13T05:39:15;18.10;99.90
19031;DHT22;9648;51.130;13.978;2023-07-13T05:41:42;18.20;99.90
19031;DHT22;9648;51.130;13.978;2023-07-13T05:44:09;18.20;99.90
19031;DHT22;9648;51.130;13.978;2023-07-13T05:46:35;18.30;99.90
19031;DHT22;9648;51.130;13.978;2023-07-13T05:49:02;18.30;99.90
19031;DHT22;9648;51.130;13.978;2023-07-13T05:51:30;18.40;99.90
19031;DHT22;9648;51.130;13.978;2023-07-13T05:53:58;18.40;99.90
19031;DHT22;9648;51.130;13.978;2023-07-13T05:56:25;18.40;99.90
19031;DHT22;9648;51.130;13.978;2023-07-13T05:58:52;18.50;99.90
19031;DHT22;9648;51.130;13.978;2023-07-13T06:01:18;18.50;99.90
19031;DHT22;9648;51.130;13.978;2023-07-13T06:03:46;18.50;99.90
19031;DHT22;9648;51.130;13.978;2023-07-13T06:06:16;18.60;99.90
19031;DHT22;9648;51.130;13.978;2023-07-13T06:08:43;18.60;99.90
19031;DHT22;9648;51.130;13.978;2023-07-13T06:11:14;18.60;99.90
19031;DHT22;9648;51.130;13.978;2023-07-13T06:13:41;18.60;99.90
19031;DHT22;9648;51.130;13.978;2023-07-13T06:16:08;18.60;99.90
19031;DHT22;9648;51.130;13.978;2023-07-13T06:18:36;18.70;99.90
19031;DHT22;9648;51.130;13.978;2023-07-13T06:21:06;18.80;99.90
19031;DHT22;9648;51.130;13.978;2023-07-13T06:23:34;18.80;99.90
19031;DHT22;9648;51.130;13.978;2023-07-13T06:26:01;18.90;99.90
19031;DHT22;9648;51.130;13.978;2023-07-13T06:28:30;19.00;99.90
19031;DHT22;9648;51.130;13.978;2023-07-13T06:30:57;19.00;99.90
19031;DHT22;9648;51.130;13.978;2023-07-13T06:33:25;19.20;99.90
19031;DHT22;9648;51.130;13.978;2023-07-13T06:35:51;19.20;99.90
19031;DHT22;9648;51.130;13.978;2023-07-13T06:38:18;19.40;99.90
19031;DHT22;9648;51.130;13.978;2023-07-13T06:40:45;19.50;99.90
19031;DHT22;9648;51.130;13.978;2023-07-13T06:43:12;19.50;99.90
19031;DHT22;9648;51.130;13.978;2023-07-13T06:45:44;19.50;99.90
19031;DHT22;9648;51.130;13.978;2023-07-13T06:48:11;19.70;99.90
19031;DHT22;9648;51.130;13.978;2023-07-13T06:50:38;19.70;99.90
19031;DHT22;9648;51.130;13.978;2023-07-13T06:53:04;19.80;99.90
19031;DHT22;9648;51.130;13.978;2023-07-13T06:55:31;19.90;99.90
19031;DHT22;9648;51.130;13.978;2023-07-13T06:57:58;19.90;99.90
19031;DHT22;9648;51.130;13.978;2023-07-13T07:00:25;20.10;99.90
19031;DHT22;9648;51.130;13.978;2023-07-13T07:02:53;20.30;99.90
19031;DHT22;9648;51.130;13.978;2023-07-13T07:05:19;20.60;99.90
19031;DHT22;9648;51.130;13.978;2023-07-13T07:07:47;20.70;99.90
19031;DHT22;9648;51.130;13.978;2023-07-13T07:10:14;20.80;99.90
19031;DHT22;9648;51.130;13.978;2023-07-13T07:12:41;21.00;99.90
19031;DHT22;9648;51.130;13.978;2023-07-13T07:15:08;21.20;99.90
19031;DHT22;9648;51.130;13.978;2023-07-13T07:17:35;21.40;99.90
19031;DHT22;9648;51.130;13.978;2023-07-13T07:20:04;21.50;99.90
19031;DHT22;9648;51.130;13.978;2023-07-13T07:22:31;21.80;99.90
19031;DHT22;9648;51.130;13.978;2023-07-13T07:24:58;21.90;99.90
19031;DHT22;9648;51.130;13.978;2023-07-13T07:27:25;21.90;99.90
19031;DHT22;9648;51.130;13.978;2023-07-13T07:29:52;21.90;99.90
19031;DHT22;9648;51.130;13.978;2023-07-13T07:32:19;21.90;99.90
19031;DHT22;9648;51.130;13.978;2023-07-13T07:34:46;21.90;99.90
19031;DHT22;9648;51.130;13.978;2023-07-13T07:37:14;22.00;99.90
19031;DHT22;9648;51.130;13.978;2023-07-13T07:39:43;22.20;99.90
19031;DHT22;9648;51.130;13.978;2023-07-13T07:42:10;22.40;99.90
19031;DHT22;9648;51.130;13.978;2023-07-13T07:44:39;22.30;99.90
19031;DHT22;9648;51.130;13.978;2023-07-13T07:47:06;22.30;99.90
19031;DHT22;9648;51.130;13.978;2023-07-13T07:49:33;22.40;99.90
19031;DHT22;9648;51.130;13.978;2023-07-13T07:51:59;22.40;99.90
19031;DHT22;9648;51.130;13.978;2023-07-13T07:54:28;22.40;99.90
19031;DHT22;9648;51.130;13.978;2023-07-13T07:56:54;22.50;99.90
19031;DHT22;9648;51.130;13.978;2023-07-13T07:59:21;22.60;99.90
19031;DHT22;9648;51.130;13.978;2023-07-13T08:01:48;22.60;99.90
19031;DHT22;9648;51.130;13.978;2023-07-13T08:04:15;22.70;99.90
19031;DHT22;9648;51.130;13.978;2023-07-13T08:06:42;22.70;99.90
19031;DHT22;9648;51.130;13.978;2023-07-13T08:09:09;22.60;98.60
19031;DHT22;9648;51.130;13.978;2023-07-13T08:11:37;22.50;98.50
19031;DHT22;9648;51.130;13.978;2023-07-13T08:14:04;22.60;98.60
19031;DHT22;9648;51.130;13.978;2023-07-13T08:16:30;22.50;97.70
19031;DHT22;9648;51.130;13.978;2023-07-13T08:18:58;22.40;99.10
19031;DHT22;9648;51.130;13.978;2023-07-13T08:21:25;22.30;95.70
19031;DHT22;9648;51.130;13.978;2023-07-13T08:23:52;22.30;96.70
19031;DHT22;9648;51.130;13.978;2023-07-13T08:26:18;22.40;96.10
19031;DHT22;9648;51.130;13.978;2023-07-13T08:28:47;22.60;95.50
19031;DHT22;9648;51.130;13.978;2023-07-13T08:31:14;22.70;96.20
19031;DHT22;9648;51.130;13.978;2023-07-13T08:33:41;22.90;95.90
19031;DHT22;9648;51.130;13.978;2023-07-13T08:36:07;22.90;93.80
19031;DHT22;9648;51.130;13.978;2023-07-13T08:38:34;22.90;93.30
19031;DHT22;9648;51.130;13.978;2023-07-13T08:41:10;22.90;93.20
19031;DHT22;9648;51.130;13.978;2023-07-13T08:43:38;22.90;90.40
19031;DHT22;9648;51.130;13.978;2023-07-13T08:46:09;23.10;91.20
19031;DHT22;9648;51.130;13.978;2023-07-13T08:48:41;23.20;86.80
19031;DHT22;9648;51.130;13.978;2023-07-13T08:51:20;23.30;85.00
19031;DHT22;9648;51.130;13.978;2023-07-13T08:53:54;23.40;82.60
19031;DHT22;9648;51.130;13.978;2023-07-13T08:56:26;23.40;82.10
19031;DHT22;9648;51.130;13.978;2023-07-13T08:58:56;23.50;81.70
19031;DHT22;9648;51.130;13.978;2023-07-13T09:01:30;23.50;82.50
19031;DHT22;9648;51.130;13.978;2023-07-13T09:04:05;23.60;82.30
19031;DHT22;9648;51.130;13.978;2023-07-13T09:06:39;23.70;87.50
19031;DHT22;9648;51.130;13.978;2023-07-13T09:09:18;23.90;80.70
19031;DHT22;9648;51.130;13.978;2023-07-13T09:11:58;24.10;75.60
19031;DHT22;9648;51.130;13.978;2023-07-13T09:14:34;24.20;80.00
19031;DHT22;9648;51.130;13.978;2023-07-13T09:17:12;24.20;76.80
19031;DHT22;9648;51.130;13.978;2023-07-13T09:19:40;24.20;76.60
19031;DHT22;9648;51.130;13.978;2023-07-13T09:22:12;24.10;73.80
19031;DHT22;9648;51.130;13.978;2023-07-13T09:24:53;23.90;76.70
19031;DHT22;9648;51.130;13.978;2023-07-13T09:27:24;23.90;77.10
19031;DHT22;9648;51.130;13.978;2023-07-13T09:29:58;23.90;74.90
19031;DHT22;9648;51.130;13.978;2023-07-13T09:32:29;23.90;74.70
19031;DHT22;9648;51.130;13.978;2023-07-13T09:34:57;24.00;77.90
19031;DHT22;9648;51.130;13.978;2023-07-13T09:37:31;24.10;74.70
19031;DHT22;9648;51.130;13.978;2023-07-13T09:39:59;24.10;75.40
19031;DHT22;9648;51.130;13.978;2023-07-13T09:42:31;24.20;75.60
19031;DHT22;9648;51.130;13.978;2023-07-13T09:45:00;24.30;75.60
19031;DHT22;9648;51.130;13.978;2023-07-13T09:47:32;24.30;74.40
19031;DHT22;9648;51.130;13.978;2023-07-13T09:50:01;24.10;68.00
19031;DHT22;9648;51.130;13.978;2023-07-13T09:52:40;24.00;73.30
19031;DHT22;9648;51.130;13.978;2023-07-13T09:55:23;23.90;71.80
19031;DHT22;9648;51.130;13.978;2023-07-13T09:57:50;23.90;71.40
19031;DHT22;9648;51.130;13.978;2023-07-13T10:00:24;24.00;69.90
19031;DHT22;9648;51.130;13.978;2023-07-13T10:03:00;24.00;72.20
19031;DHT22;9648;51.130;13.978;2023-07-13T10:05:37;24.00;71.30
19031;DHT22;9648;51.130;13.978;2023-07-13T10:08:04;24.00;70.10
19031;DHT22;9648;51.130;13.978;2023-07-13T10:10:33;23.90;71.80
19031;DHT22;9648;51.130;13.978;2023-07-13T10:13:01;23.80;70.60
19031;DHT22;9648;51.130;13.978;2023-07-13T10:15:31;23.90;73.10
19031;DHT22;9648;51.130;13.978;2023-07-13T10:18:00;24.20;68.70
19031;DHT22;9648;51.130;13.978;2023-07-13T10:20:27;24.40;71.60
19031;DHT22;9648;51.130;13.978;2023-07-13T10:22:58;24.50;71.80
19031;DHT22;9648;51.130;13.978;2023-07-13T10:25:28;24.60;71.00
19031;DHT22;9648;51.130;13.978;2023-07-13T10:28:02;24.80;68.60
19031;DHT22;9648;51.130;13.978;2023-07-13T10:30:33;24.70;68.10
19031;DHT22;9648;51.130;13.978;2023-07-13T10:33:10;24.70;69.20
19031;DHT22;9648;51.130;13.978;2023-07-13T10:35:39;24.70;68.80
19031;DHT22;9648;51.130;13.978;2023-07-13T10:38:12;24.80;69.10
19031;DHT22;9648;51.130;13.978;2023-07-13T10:40:41;24.90;69.30
19031;DHT22;9648;51.130;13.978;2023-07-13T10:43:13;25.00;63.20
19031;DHT22;9648;51.130;13.978;2023-07-13T10:45:41;24.90;65.30
19031;DHT22;9648;51.130;13.978;2023-07-13T10:48:13;25.00;63.30
19031;DHT22;9648;51.130;13.978;2023-07-13T10:50:43;25.20;64.30
19031;DHT22;9648;51.130;13.978;2023-07-13T10:53:19;25.40;62.40
19031;DHT22;9648;51.130;13.978;2023-07-13T10:55:59;25.60;60.60
19031;DHT22;9648;51.130;13.978;2023-07-13T10:58:32;25.60;59.40
19031;DHT22;9648;51.130;13.978;2023-07-13T11:01:06;25.60;60.80
19031;DHT22;9648;51.130;13.978;2023-07-13T11:03:37;25.90;62.30
19031;DHT22;9648;51.130;13.978;2023-07-13T11:06:09;25.90;56.30
19031;DHT22;9648;51.130;13.978;2023-07-13T11:08:39;25.70;58.00
19031;DHT22;9648;51.130;13.978;2023-07-13T11:11:35;25.70;58.20
19031;DHT22;9648;51.130;13.978;2023-07-13T11:14:09;25.80;58.70
19031;DHT22;9648;51.130;13.978;2023-07-13T11:16:51;26.00;58.80
19031;DHT22;9648;51.130;13.978;2023-07-13T11:19:37;26.30;59.70
19031;DHT22;9648;51.130;13.978;2023-07-13T11:22:15;26.50;59.20
19031;DHT22;9648;51.130;13.978;2023-07-13T11:24:52;26.50;54.80
19031;DHT22;9648;51.130;13.978;2023-07-13T11:27:26;26.50;56.40
19031;DHT22;9648;51.130;13.978;2023-07-13T11:30:07;26.60;57.60
19031;DHT22;9648;51.130;13.978;2023-07-13T11:32:35;26.70;55.40
19031;DHT22;9648;51.130;13.978;2023-07-13T11:35:03;26.60;55.50
19031;DHT22;9648;51.130;13.978;2023-07-13T11:37:31;26.30;55.10
19031;DHT22;9648;51.130;13.978;2023-07-13T11:39:58;26.10;53.60
19031;DHT22;9648;51.130;13.978;2023-07-13T11:42:25;25.70;52.70
19031;DHT22;9648;51.130;13.978;2023-07-13T11:44:52;25.40;55.60
19031;DHT22;9648;51.130;13.978;2023-07-13T11:47:22;25.10;54.90
19031;DHT22;9648;51.130;13.978;2023-07-13T11:49:53;25.00;55.70
19031;DHT22;9648;51.130;13.978;2023-07-13T11:52:28;24.90;59.20
19031;DHT22;9648;51.130;13.978;2023-07-13T11:54:57;24.90;57.90
19031;DHT22;9648;51.130;13.978;2023-07-13T11:57:29;25.10;55.90
19031;DHT22;9648;51.130;13.978;2023-07-13T12:00:00;25.40;55.70
19031;DHT22;9648;51.130;13.978;2023-07-13T12:02:29;25.60;54.10
19031;DHT22;9648;51.130;13.978;2023-07-13T12:04:58;25.90;51.70
19031;DHT22;9648;51.130;13.978;2023-07-13T12:07:29;26.10;54.10
19031;DHT22;9648;51.130;13.978;2023-07-13T12:10:00;26.10;56.40
19031;DHT22;9648;51.130;13.978;2023-07-13T12:12:28;25.90;57.00
19031;DHT22;9648;51.130;13.978;2023-07-13T12:14:56;25.60;57.50
19031;DHT22;9648;51.130;13.978;2023-07-13T12:17:24;25.30;60.60
19031;DHT22;9648;51.130;13.978;2023-07-13T12:19:52;25.30;61.10
19031;DHT22;9648;51.130;13.978;2023-07-13T12:22:20;25.50;60.80
19031;DHT22;9648;51.130;13.978;2023-07-13T12:24:51;25.70;59.90
19031;DHT22;9648;51.130;13.978;2023-07-13T12:27:21;25.70;58.90
19031;DHT22;9648;51.130;13.978;2023-07-13T12:29:51;25.60;58.40
19031;DHT22;9648;51.130;13.978;2023-07-13T12:32:19;25.50;58.30
19031;DHT22;9648;51.130;13.978;2023-07-13T12:34:54;25.40;57.50
19031;DHT22;9648;51.130;13.978;2023-07-13T12:37:22;25.10;56.80
19031;DHT22;9648;51.130;13.978;2023-07-13T12:39:51;25.30;57.60
19031;DHT22;9648;51.130;13.978;2023-07-13T12:42:21;25.30;55.30
19031;DHT22;9648;51.130;13.978;2023-07-13T12:44:53;25.40;56.10
19031;DHT22;9648;51.130;13.978;2023-07-13T12:47:22;25.30;54.70
19031;DHT22;9648;51.130;13.978;2023-07-13T12:49:53;25.30;54.30
19031;DHT22;9648;51.130;13.978;2023-07-13T12:52:23;25.30;54.70
19031;DHT22;9648;51.130;13.978;2023-07-13T12:54:55;25.30;54.50
19031;DHT22;9648;51.130;13.978;2023-07-13T12:57:23;25.40;52.10
19031;DHT22;9648;51.130;13.978;2023-07-13T12:59:53;25.40;50.60
19031;DHT22;9648;51.130;13.978;2023-07-13T13:02:26;25.20;51.80
19031;DHT22;9648;51.130;13.978;2023-07-13T13:04:55;25.10;52.20
19031;DHT22;9648;51.130;13.978;2023-07-13T13:07:23;25.20;52.70
19031;DHT22;9648;51.130;13.978;2023-07-13T13:09:51;25.30;53.50
19031;DHT22;9648;51.130;13.978;2023-07-13T13:12:21;25.50;52.60
19031;DHT22;9648;51.130;13.978;2023-07-13T13:14:49;25.80;50.80
19031;DHT22;9648;51.130;13.978;2023-07-13T13:17:20;26.00;49.40
19031;DHT22;9648;51.130;13.978;2023-07-13T13:19:49;26.20;50.80
19031;DHT22;9648;51.130;13.978;2023-07-13T13:22:18;26.30;48.00
19031;DHT22;9648;51.130;13.978;2023-07-13T13:24:45;26.20;47.70
19031;DHT22;9648;51.130;13.978;2023-07-13T13:27:15;26.40;49.10
19031;DHT22;9648;51.130;13.978;2023-07-13T13:29:46;26.50;50.80
19031;DHT22;9648;51.130;13.978;2023-07-13T13:32:14;26.70;48.70
19031;DHT22;9648;51.130;13.978;2023-07-13T13:34:42;26.80;45.90
19031;DHT22;9648;51.130;13.978;2023-07-13T13:37:17;27.00;46.60
19031;DHT22;9648;51.130;13.978;2023-07-13T13:39:44;27.10;46.70
19031;DHT22;9648;51.130;13.978;2023-07-13T13:42:11;27.20;48.00
19031;DHT22;9648;51.130;13.978;2023-07-13T13:44:38;27.30;48.00
19031;DHT22;9648;51.130;13.978;2023-07-13T13:47:23;27.00;46.60
19031;DHT22;9648;51.130;13.978;2023-07-13T13:49:54;26.90;48.70
19031;DHT22;9648;51.130;13.978;2023-07-13T13:52:21;26.80;48.10
19031;DHT22;9648;51.130;13.978;2023-07-13T13:54:48;26.60;46.90
19031;DHT22;9648;51.130;13.978;2023-07-13T13:57:15;26.30;45.40
19031;DHT22;9648;51.130;13.978;2023-07-13T13:59:41;26.20;47.80
19031;DHT22;9648;51.130;13.978;2023-07-13T14:02:23;26.30;47.00
19031;DHT22;9648;51.130;13.978;2023-07-13T14:04:54;26.40;46.90
19031;DHT22;9648;51.130;13.978;2023-07-13T14:07:22;26.60;47.30
19031;DHT22;9648;51.130;13.978;2023-07-13T14:09:48;26.80;47.90
19031;DHT22;9648;51.130;13.978;2023-07-13T14:12:15;27.00;45.40
19031;DHT22;9648;51.130;13.978;2023-07-13T14:14:42;27.10;45.10
19031;DHT22;9648;51.130;13.978;2023-07-13T14:17:21;27.10;46.20
19031;DHT22;9648;51.130;13.978;2023-07-13T14:19:49;27.20;46.00
19031;DHT22;9648;51.130;13.978;2023-07-13T14:22:22;27.30;45.90
19031;DHT22;9648;51.130;13.978;2023-07-13T14:24:49;27.20;46.00
19031;DHT22;9648;51.130;13.978;2023-07-13T14:27:16;26.90;45.50
19031;DHT22;9648;51.130;13.978;2023-07-13T14:29:43;26.60;45.50
19031;DHT22;9648;51.130;13.978;2023-07-13T14:32:11;26.60;44.10
19031;DHT22;9648;51.130;13.978;2023-07-13T14:34:39;26.60;45.60
19031;DHT22;9648;51.130;13.978;2023-07-13T14:37:12;26.60;45.30
19031;DHT22;9648;51.130;13.978;2023-07-13T14:39:40;26.70;44.50
19031;DHT22;9648;51.130;13.978;2023-07-13T14:42:09;26.80;44.60
19031;DHT22;9648;51.130;13.978;2023-07-13T14:44:37;27.10;45.40
19031;DHT22;9648;51.130;13.978;2023-07-13T14:47:05;27.10;44.30
19031;DHT22;9648;51.130;13.978;2023-07-13T14:49:35;27.10;43.80
19031;DHT22;9648;51.130;13.978;2023-07-13T14:52:10;27.10;46.10
19031;DHT22;9648;51.130;13.978;2023-07-13T14:54:38;27.20;44.70
19031;DHT22;9648;51.130;13.978;2023-07-13T14:57:09;27.30;45.80
19031;DHT22;9648;51.130;13.978;2023-07-13T14:59:36;27.40;45.90
19031;DHT22;9648;51.130;13.978;2023-07-13T15:02:14;27.50;43.00
19031;DHT22;9648;51.130;13.978;2023-07-13T15:04:41;27.30;41.40
19031;DHT22;9648;51.130;13.978;2023-07-13T15:07:11;27.20;42.50
19031;DHT22;9648;51.130;13.978;2023-07-13T15:09:39;27.20;43.60
19031;DHT22;9648;51.130;13.978;2023-07-13T15:12:06;27.20;42.80
19031;DHT22;9648;51.130;13.978;2023-07-13T15:14:33;27.20;43.60
19031;DHT22;9648;51.130;13.978;2023-07-13T15:17:00;27.40;43.00
19031;DHT22;9648;51.130;13.978;2023-07-13T15:19:28;27.60;41.50
19031;DHT22;9648;51.130;13.978;2023-07-13T15:21:56;27.80;40.20
19031;DHT22;9648;51.130;13.978;2023-07-13T15:24:25;27.80;42.70
19031;DHT22;9648;51.130;13.978;2023-07-13T15:26:52;27.80;41.60
19031;DHT22;9648;51.130;13.978;2023-07-13T15:29:19;27.80;40.10
19031;DHT22;9648;51.130;13.978;2023-07-13T15:31:46;27.90;40.30
19031;DHT22;9648;51.130;13.978;2023-07-13T15:34:15;28.00;41.10
19031;DHT22;9648;51.130;13.978;2023-07-13T15:36:43;27.70;39.10
19031;DHT22;9648;51.130;13.978;2023-07-13T15:39:14;27.60;38.80
19031;DHT22;9648;51.130;13.978;2023-07-13T15:41:43;27.50;39.40